sensor_id;sensor_type;location;lat;lon;timestamp;P1;P2;P0
45788;PMS7003;31492;54.856;26.318;2023-04-20T00:01:04;15.5;14.5;11.5
45788;PMS7003;31492;54.856;26.318;2023-04-20T00:06:04;15.8;14;11.1
45788;PMS7003;31492;54.856;26.318;2023-04-20T00:11:04;15.4;14;11
45788;PMS7003;31492;54.856;26.318;2023-04-20T00:16:14;15.8;14.3;11.2
45788;PMS7003;31492;54.856;26.318;2023-04-20T00:21:04;14.4;13.2;10.2
45788;PMS7003;31492;54.856;26.318;2023-04-20T00:26:14;15.5;13.9;10.6
45788;PMS7003;31492;54.856;26.318;2023-04-20T00:31:04;17.1;15;11.6
45788;PMS7003;31492;54.856;26.318;2023-04-20T00:36:04;16.4;14.5;11.6
45788;PMS7003;31492;54.856;26.318;2023-04-20T00:41:16;15.5;13.7;10.9
45788;PMS7003;31492;54.856;26.318;2023-04-20T00:46:04;15.9;14.8;11.5
45788;PMS7003;31492;54.856;26.318;2023-04-20T00:51:22;15.7;14.1;10.9
45788;PMS7003;31492;54.856;26.318;2023-04-20T00:56:04;13.7;12.1;9.6
45788;PMS7003;31492;54.856;26.318;2023-04-20T01:01:04;16.4;14.7;11.4
45788;PMS7003;31492;54.856;26.318;2023-04-20T01:06:26;16.6;14.8;11.3
45788;PMS7003;31492;54.856;26.318;2023-04-20T01:11:16;16;15.1;11.5
45788;PMS7003;31492;54.856;26.318;2023-04-20T01:16:04;15.4;13.6;10.7
45788;PMS7003;31492;54.856;26.318;2023-04-20T01:21:26;16.2;14.2;11.4
45788;PMS7003;31492;54.856;26.318;2023-04-20T01:26:11;16.2;14.2;11.2
45788;PMS7003;31492;54.856;26.318;2023-04-20T01:31:12;15.2;13.4;10.5
45788;PMS7003;31492;54.856;26.318;2023-04-20T01:36:40;16.7;14.1;10.9
45788;PMS7003;31492;54.856;26.318;2023-04-20T01:41:12;16.3;14.6;11.6
45788;PMS7003;31492;54.856;26.318;2023-04-20T01:46:28;17.5;15.2;12
45788;PMS7003;31492;54.856;26.318;2023-04-20T01:51:04;17.4;14.7;11.6
45788;PMS7003;31492;54.856;26.318;2023-04-20T01:56:16;16.6;14.9;11.9
45788;PMS7003;31492;54.856;26.318;2023-04-20T02:01:16;16.3;14.8;11.3
45788;PMS7003;31492;54.856;26.318;2023-04-20T02:06:20;17.4;15.9;12.2
45788;PMS7003;31492;54.856;26.318;2023-04-20T02:11:28;16.7;15;11.8
45788;PMS7003;31492;54.856;26.318;2023-04-20T02:16:10;17.5;14.9;11.1
45788;PMS7003;31492;54.856;26.318;2023-04-20T02:21:26;15.3;14;11.2
45788;PMS7003;31492;54.856;26.318;2023-04-20T02:26:28;17.4;15.5;12.3
45788;PMS7003;31492;54.856;26.318;2023-04-20T02:31:04;17.1;15.6;12.4
45788;PMS7003;31492;54.856;26.318;2023-04-20T02:36:04;17.7;15.4;11.9
45788;PMS7003;31492;54.856;26.318;2023-04-20T02:41:04;16.9;15.7;12.6
45788;PMS7003;31492;54.856;26.318;2023-04-20T02:46:04;17.1;15.6;12
45788;PMS7003;31492;54.856;26.318;2023-04-20T02:51:16;16.8;15.7;11.9
45788;PMS7003;31492;54.856;26.318;2023-04-20T02:56:04;16.4;14.6;11.5
45788;PMS7003;31492;54.856;26.318;2023-04-20T03:01:16;16.9;14.8;11.3
45788;PMS7003;31492;54.856;26.318;2023-04-20T03:06:22;17.2;14.2;11.1
45788;PMS7003;31492;54.856;26.318;2023-04-20T03:11:16;18.6;15.1;11.9
45788;PMS7003;31492;54.856;26.318;2023-04-20T03:16:16;17.8;15.7;12
45788;PMS7003;31492;54.856;26.318;2023-04-20T03:21:04;17.9;15.8;12.7
45788;PMS7003;31492;54.856;26.318;2023-04-20T03:26:16;15.6;13.8;11
45788;PMS7003;31492;54.856;26.318;2023-04-20T03:31:12;16.7;15.1;11.8
45788;PMS7003;31492;54.856;26.318;2023-04-20T03:36:04;17.1;15.2;12
45788;PMS7003;31492;54.856;26.318;2023-04-20T03:41:16;15.7;14;10.7
45788;PMS7003;31492;54.856;26.318;2023-04-20T03:46:14;16.7;14.7;11.5
45788;PMS7003;31492;54.856;26.318;2023-04-20T03:51:28;17.7;15.6;11.7
45788;PMS7003;31492;54.856;26.318;2023-04-20T03:56:10;16.6;15;11.5
45788;PMS7003;31492;54.856;26.318;2023-04-20T04:01:04;15.7;14.2;10.9
45788;PMS7003;31492;54.856;26.318;2023-04-20T04:06:16;16.4;14;11.4
45788;PMS7003;31492;54.856;26.318;2023-04-20T04:11:04;16.7;15;11.8
45788;PMS7003;31492;54.856;26.318;2023-04-20T04:16:16;16.9;14.4;11.2
45788;PMS7003;31492;54.856;26.318;2023-04-20T04:21:04;16.8;14.4;11.3
45788;PMS7003;31492;54.856;26.318;2023-04-20T04:26:04;16.3;14.4;11.1
45788;PMS7003;31492;54.856;26.318;2023-04-20T04:31:04;16.3;14.4;11.3
45788;PMS7003;31492;54.856;26.318;2023-04-20T04:36:28;16.2;14.3;11.4
45788;PMS7003;31492;54.856;26.318;2023-04-20T04:41:16;17.3;15;11.4
45788;PMS7003;31492;54.856;26.318;2023-04-20T04:46:12;16.7;14.6;11.2
45788;PMS7003;31492;54.856;26.318;2023-04-20T04:51:16;15.6;13.6;10.9
45788;PMS7003;31492;54.856;26.318;2023-04-20T04:56:24;15.3;13.6;11
45788;PMS7003;31492;54.856;26.318;2023-04-20T05:01:20;15.9;13.8;11
45788;PMS7003;31492;54.856;26.318;2023-04-20T05:06:04;15.2;13.6;10.9
45788;PMS7003;31492;54.856;26.318;2023-04-20T05:11:16;14.9;13.5;10.4
45788;PMS7003;31492;54.856;26.318;2023-04-20T05:16:22;15.4;13.9;10.9
45788;PMS7003;31492;54.856;26.318;2023-04-20T05:21:22;16;14.1;10.6
45788;PMS7003;31492;54.856;26.318;2023-04-20T05:26:12;16.4;14.2;10.9
45788;PMS7003;31492;54.856;26.318;2023-04-20T05:31:04;15;13.5;10.1
45788;PMS7003;31492;54.856;26.318;2023-04-20T05:36:07;14;12.2;10
45788;PMS7003;31492;54.856;26.318;2023-04-20T05:41:04;14;12.5;9.7
45788;PMS7003;31492;54.856;26.318;2023-04-20T05:46:04;14.7;12.6;9.9
45788;PMS7003;31492;54.856;26.318;2023-04-20T05:51:20;15.4;13.2;10.4
45788;PMS7003;31492;54.856;26.318;2023-04-20T05:56:04;15.2;13;10.4
45788;PMS7003;31492;54.856;26.318;2023-04-20T06:01:04;14.8;12.8;9.9
45788;PMS7003;31492;54.856;26.318;2023-04-20T06:06:04;14.4;13;10.3
45788;PMS7003;31492;54.856;26.318;2023-04-20T06:11:04;15.4;13.6;10.4
45788;PMS7003;31492;54.856;26.318;2023-04-20T06:16:12;14.2;12.9;10.1
45788;PMS7003;31492;54.856;26.318;2023-04-20T06:21:04;14;12.1;9.6
45788;PMS7003;31492;54.856;26.318;2023-04-20T06:26:10;14.8;13.2;10.3
45788;PMS7003;31492;54.856;26.318;2023-04-20T06:31:14;13.9;12.1;9.7
45788;PMS7003;31492;54.856;26.318;2023-04-20T06:36:40;12.9;11.4;8.8
45788;PMS7003;31492;54.856;26.318;2023-04-20T06:41:46;14.1;12.4;9.9
45788;PMS7003;31492;54.856;26.318;2023-04-20T06:46:04;12.4;11.5;9.4
45788;PMS7003;31492;54.856;26.318;2023-04-20T06:51:11;12.2;10.4;8.8
45788;PMS7003;31492;54.856;26.318;2023-04-20T06:56:04;14.5;12.1;9.6
45788;PMS7003;31492;54.856;26.318;2023-04-20T07:01:24;13.5;10.8;8.5
45788;PMS7003;31492;54.856;26.318;2023-04-20T07:06:20;14.3;12.2;9.8
45788;PMS7003;31492;54.856;26.318;2023-04-20T07:11:16;12.5;11.3;8.9
45788;PMS7003;31492;54.856;26.318;2023-04-20T07:16:10;12.1;11.1;9
45788;PMS7003;31492;54.856;26.318;2023-04-20T07:22:12;12.6;10.7;8.8
45788;PMS7003;31492;54.856;26.318;2023-04-20T07:26:10;11.2;9.8;8
45788;PMS7003;31492;54.856;26.318;2023-04-20T07:31:20;12;10.3;8.6
45788;PMS7003;31492;54.856;26.318;2023-04-20T07:36:38;13;11.5;8.9
45788;PMS7003;31492;54.856;26.318;2023-04-20T07:41:10;10.5;9.5;7.6
45788;PMS7003;31492;54.856;26.318;2023-04-20T07:46:04;11.2;9.9;8.1
45788;PMS7003;31492;54.856;26.318;2023-04-20T07:51:22;9.8;9;7.4
45788;PMS7003;31492;54.856;26.318;2023-04-20T07:56:04;9.4;8.7;7.3
45788;PMS7003;31492;54.856;26.318;2023-04-20T08:01:16;9.7;8.8;7.3
45788;PMS7003;31492;54.856;26.318;2023-04-20T08:06:04;10.4;8.8;7.1
45788;PMS7003;31492;54.856;26.318;2023-04-20T08:11:04;10.3;9.5;7.8
45788;PMS7003;31492;54.856;26.318;2023-04-20T08:16:22;10.1;9;7.4
45788;PMS7003;31492;54.856;26.318;2023-04-20T08:21:12;9.7;8.6;7.2
45788;PMS7003;31492;54.856;26.318;2023-04-20T08:26:14;10;8.9;7.3
45788;PMS7003;31492;54.856;26.318;2023-04-20T08:31:16;10.3;9.4;7.9
45788;PMS7003;31492;54.856;26.318;2023-04-20T08:36:04;9.9;8.5;7
45788;PMS7003;31492;54.856;26.318;2023-04-20T08:41:04;10.2;9.6;8
45788;PMS7003;31492;54.856;26.318;2023-04-20T08:46:04;10.5;9.4;7.8
45788;PMS7003;31492;54.856;26.318;2023-04-20T08:51:13;10.6;9.2;7.7
45788;PMS7003;31492;54.856;26.318;2023-04-20T08:56:12;9.3;8.6;7.3
45788;PMS7003;31492;54.856;26.318;2023-04-20T09:01:04;9.6;8.7;7.4
45788;PMS7003;31492;54.856;26.318;2023-04-20T09:06:05;9.5;8.8;7.2
45788;PMS7003;31492;54.856;26.318;2023-04-20T09:11:21;9.5;8.3;6.8
45788;PMS7003;31492;54.856;26.318;2023-04-20T09:16:08;10.6;9.3;7.7
45788;PMS7003;31492;54.856;26.318;2023-04-20T09:21:23;9.4;8.8;7.3
45788;PMS7003;31492;54.856;26.318;2023-04-20T09:26:16;9.6;8.6;7.2
45788;PMS7003;31492;54.856;26.318;2023-04-20T09:31:04;9;8.6;6.9
45788;PMS7003;31492;54.856;26.318;2023-04-20T09:36:04;8.7;7.7;6.6
45788;PMS7003;31492;54.856;26.318;2023-04-20T09:41:12;9.1;7.7;6.4
45788;PMS7003;31492;54.856;26.318;2023-04-20T09:46:04;8.5;7.8;6.4
45788;PMS7003;31492;54.856;26.318;2023-04-20T09:51:04;8.8;8.3;6.9
45788;PMS7003;31492;54.856;26.318;2023-04-20T09:56:04;8.4;7.8;6.8
45788;PMS7003;31492;54.856;26.318;2023-04-20T10:01:29;8.2;7.7;6.5
45788;PMS7003;31492;54.856;26.318;2023-04-20T10:06:33;9.1;8.4;6.8
45788;PMS7003;31492;54.856;26.318;2023-04-20T10:11:24;8.3;7.8;6.5
45788;PMS7003;31492;54.856;26.318;2023-04-20T10:16:16;8.4;7.2;5.9
45788;PMS7003;31492;54.856;26.318;2023-04-20T10:21:05;8.4;7.5;6.3
45788;PMS7003;31492;54.856;26.318;2023-04-20T10:26:16;7.6;7;5.9
45788;PMS7003;31492;54.856;26.318;2023-04-20T10:31:18;8;7.2;6.4
45788;PMS7003;31492;54.856;26.318;2023-04-20T10:36:04;8.5;7.6;6.4
45788;PMS7003;31492;54.856;26.318;2023-04-20T10:41:30;7.6;7;5.8
45788;PMS7003;31492;54.856;26.318;2023-04-20T10:46:17;6.7;6.2;5.1
45788;PMS7003;31492;54.856;26.318;2023-04-20T10:51:07;8.7;7.2;5.8
45788;PMS7003;31492;54.856;26.318;2023-04-20T10:56:39;7.5;7.1;6.2
45788;PMS7003;31492;54.856;26.318;2023-04-20T11:01:12;7.5;6.9;5.7
45788;PMS7003;31492;54.856;26.318;2023-04-20T11:06:26;7.6;6.9;5.7
45788;PMS7003;31492;54.856;26.318;2023-04-20T11:11:17;7.5;6.9;5.9
45788;PMS7003;31492;54.856;26.318;2023-04-20T11:16:13;7.4;6.7;5.7
45788;PMS7003;31492;54.856;26.318;2023-04-20T11:21:34;8.4;7.2;6.2
45788;PMS7003;31492;54.856;26.318;2023-04-20T11:26:12;7.5;7;5.6
45788;PMS7003;31492;54.856;26.318;2023-04-20T11:31:22;8.1;7;5.6
45788;PMS7003;31492;54.856;26.318;2023-04-20T11:36:05;6.8;6.3;5.1
45788;PMS7003;31492;54.856;26.318;2023-04-20T11:41:04;7.2;7;5.6
45788;PMS7003;31492;54.856;26.318;2023-04-20T11:46:11;7.3;6.8;5.6
45788;PMS7003;31492;54.856;26.318;2023-04-20T11:51:16;7.6;6.4;5.4
45788;PMS7003;31492;54.856;26.318;2023-04-20T11:56:16;7;6.3;5.3
45788;PMS7003;31492;54.856;26.318;2023-04-20T12:01:04;6.8;5.9;5.1
45788;PMS7003;31492;54.856;26.318;2023-04-20T12:06:04;6.4;5.9;4.8
45788;PMS7003;31492;54.856;26.318;2023-04-20T12:11:16;6.6;5.8;4.8
45788;PMS7003;31492;54.856;26.318;2023-04-20T12:16:05;6.8;5.8;4.8
45788;PMS7003;31492;54.856;26.318;2023-04-20T12:21:04;6.2;5.5;4.8
45788;PMS7003;31492;54.856;26.318;2023-04-20T12:26:04;5.7;5.1;4.4
45788;PMS7003;31492;54.856;26.318;2023-04-20T12:31:12;7;5.8;4.8
45788;PMS7003;31492;54.856;26.318;2023-04-20T12:36:16;5.9;5.5;4.7
45788;PMS7003;31492;54.856;26.318;2023-04-20T12:41:12;6.1;5.4;4.5
45788;PMS7003;31492;54.856;26.318;2023-04-20T12:46:32;6.2;5.2;4.4
45788;PMS7003;31492;54.856;26.318;2023-04-20T12:51:04;5.1;4.6;4.1
45788;PMS7003;31492;54.856;26.318;2023-04-20T12:56:20;6.1;5.5;4.7
45788;PMS7003;31492;54.856;26.318;2023-04-20T13:01:40;6.2;5.5;4.5
45788;PMS7003;31492;54.856;26.318;2023-04-20T13:06:30;5.9;5.5;4.6
45788;PMS7003;31492;54.856;26.318;2023-04-20T13:11:12;6;5.4;4.6
45788;PMS7003;31492;54.856;26.318;2023-04-20T13:16:16;5.4;4.6;3.7
45788;PMS7003;31492;54.856;26.318;2023-04-20T13:21:04;5.9;5.2;4.3
45788;PMS7003;31492;54.856;26.318;2023-04-20T13:26:05;6.7;5.2;4.5
45788;PMS7003;31492;54.856;26.318;2023-04-20T13:31:04;5.8;4.8;3.9
45788;PMS7003;31492;54.856;26.318;2023-04-20T13:36:12;6;4.8;3.7
45788;PMS7003;31492;54.856;26.318;2023-04-20T13:41:12;5.5;5;4.2
45788;PMS7003;31492;54.856;26.318;2023-04-20T13:46:38;6;4.8;4
45788;PMS7003;31492;54.856;26.318;2023-04-20T13:51:05;4.7;4.3;3.6
45788;PMS7003;31492;54.856;26.318;2023-04-20T13:56:25;5.4;4.8;4
45788;PMS7003;31492;54.856;26.318;2023-04-20T14:01:06;5;4.6;3.8
45788;PMS7003;31492;54.856;26.318;2023-04-20T14:06:05;5.5;4.9;4
45788;PMS7003;31492;54.856;26.318;2023-04-20T14:11:12;5.6;4.9;3.8
45788;PMS7003;31492;54.856;26.318;2023-04-20T14:16:16;4.5;4.2;3.6
45788;PMS7003;31492;54.856;26.318;2023-04-20T14:21:12;5.3;4.4;3.6
45788;PMS7003;31492;54.856;26.318;2023-04-20T14:26:26;5.4;4.1;3.5
45788;PMS7003;31492;54.856;26.318;2023-04-20T14:31:12;4.6;4.2;3.6
45788;PMS7003;31492;54.856;26.318;2023-04-20T14:36:12;4.6;4.2;3.5
45788;PMS7003;31492;54.856;26.318;2023-04-20T14:41:26;4.7;3.8;3.1
45788;PMS7003;31492;54.856;26.318;2023-04-20T14:46:05;4.7;3.7;3.1
45788;PMS7003;31492;54.856;26.318;2023-04-20T14:51:20;4.7;4.3;3.1
45788;PMS7003;31492;54.856;26.318;2023-04-20T14:56:05;4.5;4;3.3
45788;PMS7003;31492;54.856;26.318;2023-04-20T15:01:04;4.4;3.9;3.2
45788;PMS7003;31492;54.856;26.318;2023-04-20T15:06:05;4.7;4.4;3.4
45788;PMS7003;31492;54.856;26.318;2023-04-20T15:11:04;4.4;3.9;3.1
45788;PMS7003;31492;54.856;26.318;2023-04-20T15:16:36;5;4.1;3.2
45788;PMS7003;31492;54.856;26.318;2023-04-20T15:21:13;4;3.5;2.6
45788;PMS7003;31492;54.856;26.318;2023-04-20T15:26:14;3.9;3.5;2.8
45788;PMS7003;31492;54.856;26.318;2023-04-20T15:31:05;4.3;3.6;3
45788;PMS7003;31492;54.856;26.318;2023-04-20T15:36:05;3.7;3.4;2.8
45788;PMS7003;31492;54.856;26.318;2023-04-20T15:41:17;4.1;3.7;3
45788;PMS7003;31492;54.856;26.318;2023-04-20T15:46:04;3.7;3.2;2.7
45788;PMS7003;31492;54.856;26.318;2023-04-20T15:51:17;4;3.6;2.9
45788;PMS7003;31492;54.856;26.318;2023-04-20T15:56:17;3.9;3.2;2.7
45788;PMS7003;31492;54.856;26.318;2023-04-20T16:01:05;4;3.5;2.8
45788;PMS7003;31492;54.856;26.318;2023-04-20T16:06:19;3.5;2.8;2.3
45788;PMS7003;31492;54.856;26.318;2023-04-20T16:11:17;3.9;3;2.3
45788;PMS7003;31492;54.856;26.318;2023-04-20T16:16:05;3.7;3;2.4
45788;PMS7003;31492;54.856;26.318;2023-04-20T16:21:19;3.5;2.9;2.5
45788;PMS7003;31492;54.856;26.318;2023-04-20T16:26:17;3.4;3.3;2.5
45788;PMS7003;31492;54.856;26.318;2023-04-20T16:31:05;3.8;3.1;2.6
45788;PMS7003;31492;54.856;26.318;2023-04-20T16:36:15;4;3.4;2.8
45788;PMS7003;31492;54.856;26.318;2023-04-20T16:41:05;3.6;3.6;3
45788;PMS7003;31492;54.856;26.318;2023-04-20T16:46:27;3.3;2.9;2.3
45788;PMS7003;31492;54.856;26.318;2023-04-20T16:51:05;3;2.8;2.2
45788;PMS7003;31492;54.856;26.318;2023-04-20T16:56:11;4;3.3;2.8
45788;PMS7003;31492;54.856;26.318;2023-04-20T17:01:17;3.3;2.9;2.2
45788;PMS7003;31492;54.856;26.318;2023-04-20T17:06:17;3.7;3.3;2.8
45788;PMS7003;31492;54.856;26.318;2023-04-20T17:11:17;3.6;3.1;2.6
45788;PMS7003;31492;54.856;26.318;2023-04-20T17:16:21;3.6;3.5;2.9
45788;PMS7003;31492;54.856;26.318;2023-04-20T17:21:05;3.6;3.3;2.8
45788;PMS7003;31492;54.856;26.318;2023-04-20T17:26:05;4.2;3.3;2.7
45788;PMS7003;31492;54.856;26.318;2023-04-20T17:31:49;4.3;3.5;3
45788;PMS7003;31492;54.856;26.318;2023-04-20T17:36:05;4.2;3.7;3.1
45788;PMS7003;31492;54.856;26.318;2023-04-20T17:41:17;4.3;3.7;3.1
45788;PMS7003;31492;54.856;26.318;2023-04-20T17:46:27;4.1;3.5;2.9
45788;PMS7003;31492;54.856;26.318;2023-04-20T17:51:05;4.4;3.5;2.8
45788;PMS7003;31492;54.856;26.318;2023-04-20T17:56:05;4.3;3.5;2.8
45788;PMS7003;31492;54.856;26.318;2023-04-20T18:01:05;4.6;4.1;3.1
45788;PMS7003;31492;54.856;26.318;2023-04-20T18:06:35;4.9;4.1;3.2
45788;PMS7003;31492;54.856;26.318;2023-04-20T18:11:05;4.9;4;3.3
45788;PMS7003;31492;54.856;26.318;2023-04-20T18:16:23;3.9;3.5;2.8
45788;PMS7003;31492;54.856;26.318;2023-04-20T18:21:03;5;3.7;3
45788;PMS7003;31492;54.856;26.318;2023-04-20T18:26:13;4.3;3.9;3.3
45788;PMS7003;31492;54.856;26.318;2023-04-20T18:31:17;4.4;3.8;2.9
45788;PMS7003;31492;54.856;26.318;2023-04-20T18:36:05;4.6;4;3.2
45788;PMS7003;31492;54.856;26.318;2023-04-20T18:41:17;4.5;3.9;3.1
45788;PMS7003;31492;54.856;26.318;2023-04-20T18:46:17;4.7;4.1;3.3
45788;PMS7003;31492;54.856;26.318;2023-04-20T18:51:19;5.9;4.6;3.5
45788;PMS7003;31492;54.856;26.318;2023-04-20T18:56:05;6.9;5.8;4.9
45788;PMS7003;31492;54.856;26.318;2023-04-20T19:01:29;7.8;7.1;5.8
45788;PMS7003;31492;54.856;26.318;2023-04-20T19:06:05;9.3;7.8;5.9
45788;PMS7003;31492;54.856;26.318;2023-04-20T19:11:13;9.5;7.8;6.2
45788;PMS7003;31492;54.856;26.318;2023-04-20T19:16:27;10.5;8.9;7
45788;PMS7003;31492;54.856;26.318;2023-04-20T19:21:05;10;8.4;6.6
45788;PMS7003;31492;54.856;26.318;2023-04-20T19:26:21;9.5;7.9;6.1
45788;PMS7003;31492;54.856;26.318;2023-04-20T19:31:17;9.4;8.7;6.8
45788;PMS7003;31492;54.856;26.318;2023-04-20T19:36:41;10.3;8.8;6.7
45788;PMS7003;31492;54.856;26.318;2023-04-20T19:41:25;8.9;8;6.6
45788;PMS7003;31492;54.856;26.318;2023-04-20T19:46:05;8.2;7;5.8
45788;PMS7003;31492;54.856;26.318;2023-04-20T19:51:05;8.4;6.9;5.7
45788;PMS7003;31492;54.856;26.318;2023-04-20T19:56:17;8.4;7.1;5.9
45788;PMS7003;31492;54.856;26.318;2023-04-20T20:01:17;9;7.1;5.5
45788;PMS7003;31492;54.856;26.318;2023-04-20T20:06:05;7.3;6.2;4.9
45788;PMS7003;31492;54.856;26.318;2023-04-20T20:11:25;6.4;5.8;5
45788;PMS7003;31492;54.856;26.318;2023-04-20T20:16:05;6.7;5.6;4.7
45788;PMS7003;31492;54.856;26.318;2023-04-20T20:21:35;5.8;5.2;4.2
45788;PMS7003;31492;54.856;26.318;2023-04-20T20:26:17;7.2;5.9;4.6
45788;PMS7003;31492;54.856;26.318;2023-04-20T20:31:23;6.5;5.8;4.9
45788;PMS7003;31492;54.856;26.318;2023-04-20T20:36:27;7.5;6.2;5.2
45788;PMS7003;31492;54.856;26.318;2023-04-20T20:41:05;7.7;6.2;5.1
45788;PMS7003;31492;54.856;26.318;2023-04-20T20:46:25;8.2;6.7;5.5
45788;PMS7003;31492;54.856;26.318;2023-04-20T20:51:05;8.6;7.3;6
45788;PMS7003;31492;54.856;26.318;2023-04-20T20:56:17;7.7;7;5.7
45788;PMS7003;31492;54.856;26.318;2023-04-20T21:01:13;9.7;8.4;7.1
45788;PMS7003;31492;54.856;26.318;2023-04-20T21:06:17;9.6;8.5;6.6
45788;PMS7003;31492;54.856;26.318;2023-04-20T21:11:23;10.2;8.7;7.1
45788;PMS7003;31492;54.856;26.318;2023-04-20T21:16:25;10.2;8.8;7.2
45788;PMS7003;31492;54.856;26.318;2023-04-20T21:21:05;11;9.5;7.7
45788;PMS7003;31492;54.856;26.318;2023-04-20T21:26:31;10.2;8.9;7.2
45788;PMS7003;31492;54.856;26.318;2023-04-20T21:31:05;11;9.5;7.9
45788;PMS7003;31492;54.856;26.318;2023-04-20T21:36:35;9.7;8.7;6.9
45788;PMS7003;31492;54.856;26.318;2023-04-20T21:41:17;9.6;8.9;6.9
45788;PMS7003;31492;54.856;26.318;2023-04-20T21:46:25;10.6;9;6.9
45788;PMS7003;31492;54.856;26.318;2023-04-20T21:51:23;10.8;9.1;7.4
45788;PMS7003;31492;54.856;26.318;2023-04-20T21:56:17;10.6;8.9;7.4
45788;PMS7003;31492;54.856;26.318;2023-04-20T22:01:23;11;9.5;7.2
45788;PMS7003;31492;54.856;26.318;2023-04-20T22:06:17;10.1;9.1;7.3
45788;PMS7003;31492;54.856;26.318;2023-04-20T22:11:05;10.2;8.6;7.2
45788;PMS7003;31492;54.856;26.318;2023-04-20T22:16:11;11.4;9.4;7.6
45788;PMS7003;31492;54.856;26.318;2023-04-20T22:21:05;10.6;9.3;7.3
45788;PMS7003;31492;54.856;26.318;2023-04-20T22:26:05;10.6;8.5;6.9
45788;PMS7003;31492;54.856;26.318;2023-04-20T22:31:13;11.4;9.6;7.5
45788;PMS7003;31492;54.856;26.318;2023-04-20T22:36:47;11.5;9.7;7.5
45788;PMS7003;31492;54.856;26.318;2023-04-20T22:41:23;10.6;8.7;6.7
45788;PMS7003;31492;54.856;26.318;2023-04-20T22:46:05;9.9;8.6;6.8
45788;PMS7003;31492;54.856;26.318;2023-04-20T22:51:27;10.6;9.4;7.2
45788;PMS7003;31492;54.856;26.318;2023-04-20T22:56:17;10;8.8;7
45788;PMS7003;31492;54.856;26.318;2023-04-20T23:01:29;9.8;8.5;6.9
45788;PMS7003;31492;54.856;26.318;2023-04-20T23:06:25;9.8;9;6.9
45788;PMS7003;31492;54.856;26.318;2023-04-20T23:11:25;9.6;8.8;7.2
45788;PMS7003;31492;54.856;26.318;2023-04-20T23:16:25;10.4;9;7.2
45788;PMS7003;31492;54.856;26.318;2023-04-20T23:21:31;9.9;8.6;6.6
45788;PMS7003;31492;54.856;26.318;2023-04-20T23:26:13;9.8;8.7;6.9
45788;PMS7003;31492;54.856;26.318;2023-04-20T23:31:13;9.9;8.7;7
45788;PMS7003;31492;54.856;26.318;2023-04-20T23:36:05;10.5;8.8;7
45788;PMS7003;31492;54.856;26.318;2023-04-20T23:41:13;9.5;8.7;6.9
45788;PMS7003;31492;54.856;26.318;2023-04-20T23:46:17;9.8;8.6;7.3
45788;PMS7003;31492;54.856;26.318;2023-04-20T23:51:09;9.9;8.5;7.1
45788;PMS7003;31492;54.856;26.318;2023-04-20T23:56:05;10.1;8.6;6.8
